Time;durP1;ratioP1;P1;durP2;ratioP2;P2;SDS_P1;SDS_P2;PMS_P1;PMS_P2;Temp;Humidity;BMP_temperature;BMP_pressure;BME280_temperature;BME280_humidity;BME280_pressure;Samples;Min_cycle;Max_cycle;Signal;HPM_P1;HPM_P2
2020/12/12 00:01:29;;;;;;;;;;;;;;;-0.17;100.00;99364.66;5095485;28;19931;-69
2020/12/12 00:03:54;;;;;;;;;;;;;;;-0.17;100.00;99358.47;5095683;28;19932;-69
2020/12/12 00:06:20;;;;;;;;;;;;;;;-0.18;100.00;99352.25;5095413;28;19932;-69
2020/12/12 00:08:46;;;;;;;;;;;;;;;-0.16;100.00;99357.53;5095562;28;19971;-68
2020/12/12 00:11:12;;;;;;;;;;;;;;;-0.17;100.00;99356.63;5095626;28;19924;-69
2020/12/12 00:13:38;;;;;;;;;;;;;;;-0.14;100.00;99349.41;5095349;28;19931;-69
2020/12/12 00:16:06;;;;;;;;;;;;;;;-0.12;100.00;99352.84;5095275;28;20015;-69
2020/12/12 00:18:32;;;;;;;;;;;;;;;-0.11;100.00;99350.06;5095383;28;19924;-69
2020/12/12 00:20:57;;;;;;;;;;;;;;;-0.11;100.00;99335.88;5095384;28;19924;-68
2020/12/12 00:23:23;;;;;;;;;;;;;;;-0.09;100.00;99348.19;5095249;28;19946;-69
2020/12/12 00:25:49;;;;;;;;;;;;;;;-0.08;100.00;99347.25;5095229;28;19928;-69
2020/12/12 00:28:15;;;;;;;;;;;;;;;-0.05;100.00;99338.22;5095083;28;19989;-69
2020/12/12 00:30:41;;;;;;;;;;;;;;;-0.05;100.00;99341.72;5095090;28;20712;-69
2020/12/12 00:33:07;;;;;;;;;;;;;;;-0.04;100.00;99340.78;5095147;28;19924;-69
2020/12/12 00:35:33;;;;;;;;;;;;;;;-0.02;100.00;99335.34;5095087;28;19947;-68
2020/12/12 00:37:59;;;;;;;;;;;;;;;-0.01;100.00;99340.59;5094823;28;19931;-69
2020/12/12 00:40:24;;;;;;;;;;;;;;;-0.01;100.00;99337.06;5076869;28;20324;-69
2020/12/12 00:42:50;;;;;;;;;;;;;;;-0.01;100.00;99345.06;5094885;28;19928;-69
2020/12/12 00:45:16;;;;;;;;;;;;;;;-0.03;100.00;99331.84;5095017;28;19924;-69
2020/12/12 00:47:42;;;;;;;;;;;;;;;-0.02;100.00;99332.69;5094662;28;19928;-69
2020/12/12 00:50:08;;;;;;;;;;;;;;;-0.01;100.00;99345.06;5076686;28;19924;-69
2020/12/12 00:52:34;;;;;;;;;;;;;;;-0.04;100.00;99343.44;5094655;28;19950;-69
2020/12/12 00:55:00;;;;;;;;;;;;;;;-0.04;100.00;99347.91;5094771;28;19970;-69
2020/12/12 00:57:27;;;;;;;;;;;;;;;-0.05;100.00;99355.06;5076485;28;19924;-68
2020/12/12 00:59:52;;;;;;;;;;;;;;;-0.05;100.00;99351.53;5094172;28;20396;-69
2020/12/12 01:02:18;;;;;;;;;;;;;;;-0.06;100.00;99344.50;5094608;28;19931;-69
2020/12/12 01:04:45;;;;;;;;;;;;;;;-0.08;100.00;99352.59;5094445;28;20041;-69
2020/12/12 01:07:11;;;;;;;;;;;;;;;-0.12;100.00;99351.06;5076030;28;20364;-69
2020/12/12 01:09:36;;;;;;;;;;;;;;;-0.17;100.00;99353.97;5094514;28;19924;-68
2020/12/12 01:12:02;;;;;;;;;;;;;;;-0.21;100.00;99352.44;5094240;28;19924;-68
2020/12/12 01:14:28;;;;;;;;;;;;;;;-0.23;100.00;99353.47;5094140;28;20385;-69
2020/12/12 01:16:58;;;;;;;;;;;;;;;-0.25;100.00;99348.22;5094093;28;19924;-69
2020/12/12 01:19:23;;;;;;;;;;;;;;;-0.27;100.00;99344.78;5094279;28;19955;-69
2020/12/12 01:21:52;;;;;;;;;;;;;;;-0.27;100.00;99350.13;5075884;28;20412;-69
2020/12/12 01:24:18;;;;;;;;;;;;;;;-0.26;100.00;99359.84;5094221;28;20019;-69
2020/12/12 01:26:44;;;;;;;;;;;;;;;-0.27;100.00;99354.59;5093851;28;20382;-68
2020/12/12 01:29:10;;;;;;;;;;;;;;;-0.24;100.00;99363.28;5094105;28;20028;-68
2020/12/12 01:31:35;;;;;;;;;;;;;;;-0.23;100.00;99357.03;5093940;28;20385;-69
2020/12/12 01:34:01;;;;;;;;;;;;;;;-0.21;100.00;99359.59;5093908;28;19928;-68
2020/12/12 01:36:27;;;;;;;;;;;;;;;-0.22;100.00;99356.03;5093668;28;19925;-68
2020/12/12 01:38:54;;;;;;;;;;;;;;;-0.20;100.00;99354.16;5093993;28;19932;-68
2020/12/12 01:41:19;;;;;;;;;;;;;;;-0.20;100.00;99354.16;5093968;28;20022;-69
2020/12/12 01:43:49;;;;;;;;;;;;;;;-0.17;100.00;99358.47;5093731;28;19954;-69
2020/12/12 01:46:14;;;;;;;;;;;;;;;-0.12;100.00;99361.72;5093690;28;20014;-68
2020/12/12 01:48:40;;;;;;;;;;;;;;;-0.10;100.00;99364.28;5093622;28;19964;-69
2020/12/12 01:51:06;;;;;;;;;;;;;;;-0.13;100.00;99353.78;5093637;28;19990;-68
2020/12/12 01:53:32;;;;;;;;;;;;;;;-0.17;100.00;99353.97;5093386;28;19924;-69
2020/12/12 01:56:00;;;;;;;;;;;;;;;-0.24;100.00;99360.63;5093435;28;20022;-68
2020/12/12 01:58:26;;;;;;;;;;;;;;;-0.32;100.00;99356.69;5075348;28;19985;-69
2020/12/12 02:00:51;;;;;;;;;;;;;;;-0.42;100.00;99361.69;5093352;28;19927;-68
2020/12/12 02:03:20;;;;;;;;;;;;;;;-0.46;100.00;99354.81;5093451;28;19993;-69
2020/12/12 02:06:07;;;;;;;;;;;;;;;-0.53;100.00;99355.16;5093251;28;19982;-69
2020/12/12 02:08:33;;;;;;;;;;;;;;;-0.55;100.00;99356.19;5093330;28;20010;-69
2020/12/12 02:11:00;;;;;;;;;;;;;;;-0.60;100.00;99355.59;5093214;28;19924;-68
2020/12/12 02:13:26;;;;;;;;;;;;;;;-0.64;100.00;99352.25;5093144;28;20014;-69
2020/12/12 02:15:52;;;;;;;;;;;;;;;-0.65;100.00;99358.53;5093075;28;20485;-69
2020/12/12 02:18:19;;;;;;;;;;;;;;;-0.65;100.00;99357.69;5092912;28;19931;-69
2020/12/12 02:20:49;;;;;;;;;;;;;;;-0.65;100.00;99352.34;5093076;28;20369;-69
2020/12/12 02:23:16;;;;;;;;;;;;;;;-0.73;100.00;99344.78;5092403;28;19924;-68
2020/12/12 02:25:41;;;;;;;;;;;;;;;-0.75;100.00;99347.53;5092853;28;20027;-68
2020/12/12 02:28:11;;;;;;;;;;;;;;;-0.78;100.00;99342.34;5092814;28;19932;-69
2020/12/12 02:30:37;;;;;;;;;;;;;;;-0.75;100.00;99344.00;5092864;28;19966;-69
2020/12/12 02:33:03;;;;;;;;;;;;;;;-0.72;100.00;99342.03;5092703;28;19924;-69
2020/12/12 02:35:29;;;;;;;;;;;;;;;-0.71;100.00;99334.88;5092736;28;19932;-69
2020/12/12 02:37:55;;;;;;;;;;;;;;;-0.71;100.00;99337.53;5092539;28;19924;-68
2020/12/12 02:40:21;;;;;;;;;;;;;;;-0.67;100.00;99328.41;5092727;28;19977;-68
2020/12/12 02:42:47;;;;;;;;;;;;;;;-0.71;100.00;99341.09;5092583;28;20031;-69
2020/12/12 02:45:13;;;;;;;;;;;;;;;-0.75;100.00;99342.22;5092655;28;19924;-68
2020/12/12 02:47:40;;;;;;;;;;;;;;;-0.72;100.00;99341.16;5092312;28;20408;-69
2020/12/12 02:50:09;;;;;;;;;;;;;;;-0.74;100.00;99340.38;5092579;28;19928;-69
2020/12/12 02:52:35;;;;;;;;;;;;;;;-0.78;100.00;99347.69;5092384;28;19969;-69
2020/12/12 02:55:01;;;;;;;;;;;;;;;-0.82;100.00;99346.16;5092400;28;19975;-69
2020/12/12 02:57:28;;;;;;;;;;;;;;;-0.88;100.00;99342.03;5092236;28;19924;-69
2020/12/12 02:59:53;;;;;;;;;;;;;;;-0.92;100.00;99339.59;5092194;28;20335;-69
2020/12/12 03:02:19;;;;;;;;;;;;;;;-0.95;100.00;99338.00;5092318;28;19928;-68
2020/12/12 03:04:45;;;;;;;;;;;;;;;-0.99;100.00;99339.09;5092183;28;20332;-69
2020/12/12 03:07:11;;;;;;;;;;;;;;;-1.01;100.00;99331.19;5074034;28;19970;-68
2020/12/12 03:09:37;;;;;;;;;;;;;;;-1.06;100.00;99333.25;5091793;28;19924;-69
2020/12/12 03:12:02;;;;;;;;;;;;;;;-1.09;100.00;99335.22;5092108;28;19928;-69
2020/12/12 03:14:29;;;;;;;;;;;;;;;-1.08;100.00;99337.81;5092076;28;20431;-69
2020/12/12 03:16:55;;;;;;;;;;;;;;;-1.05;100.00;99328.78;5091711;28;20322;-69
2020/12/12 03:19:21;;;;;;;;;;;;;;;-0.97;100.00;99336.38;5092068;28;19928;-69
2020/12/12 03:21:46;;;;;;;;;;;;;;;-0.99;100.00;99339.09;5091867;28;19986;-69
2020/12/12 03:24:12;;;;;;;;;;;;;;;-0.99;100.00;99330.25;5092080;28;20450;-69
2020/12/12 03:26:38;;;;;;;;;;;;;;;-1.03;100.00;99335.75;5091782;28;19986;-68
2020/12/12 03:29:04;;;;;;;;;;;;;;;-0.99;100.00;99338.25;5091951;28;20297;-69
2020/12/12 03:31:30;;;;;;;;;;;;;;;-1.08;100.00;99340.47;5091867;28;19977;-69
2020/12/12 03:33:56;;;;;;;;;;;;;;;-1.04;100.00;99338.50;5090985;28;20019;-69
2020/12/12 03:36:22;;;;;;;;;;;;;;;-0.99;100.00;99340.91;5073457;28;19931;-69
2020/12/12 03:38:48;;;;;;;;;;;;;;;-0.98;100.00;99338.16;5091885;28;19954;-69
2020/12/12 03:41:14;;;;;;;;;;;;;;;-0.93;100.00;99349.41;5091917;28;19981;-69
2020/12/12 03:43:39;;;;;;;;;;;;;;;-0.90;100.00;99346.56;5092130;28;20015;-69
2020/12/12 03:46:05;;;;;;;;;;;;;;;-0.86;100.00;99350.78;5091600;28;20800;-69
2020/12/12 03:48:32;;;;;;;;;;;;;;;-0.85;100.00;99349.84;5091775;28;19931;-69
2020/12/12 03:50:58;;;;;;;;;;;;;;;-0.88;100.00;99350.03;5091678;28;19924;-68
2020/12/12 03:53:24;;;;;;;;;;;;;;;-0.85;100.00;99344.50;5091699;28;19931;-69
2020/12/12 03:55:49;;;;;;;;;;;;;;;-0.83;100.00;99346.25;5091466;28;19982;-69
2020/12/12 03:58:15;;;;;;;;;;;;;;;-0.83;100.00;99344.41;5091469;28;19961;-69
2020/12/12 04:00:41;;;;;;;;;;;;;;;-0.82;100.00;99353.28;5091366;28;19924;-69
2020/12/12 04:03:07;;;;;;;;;;;;;;;-0.91;100.00;99347.53;5091442;28;19928;-69
2020/12/12 04:05:33;;;;;;;;;;;;;;;-0.90;100.00;99346.56;5091572;28;19928;-69
2020/12/12 04:07:59;;;;;;;;;;;;;;;-0.90;100.00;99348.38;5091258;28;19978;-69
2020/12/12 04:10:25;;;;;;;;;;;;;;;-0.86;100.00;99348.13;5091441;28;19928;-69
2020/12/12 04:12:51;;;;;;;;;;;;;;;-0.82;100.00;99350.63;5091420;28;19985;-69
2020/12/12 04:15:16;;;;;;;;;;;;;;;-0.82;100.00;99350.63;5091480;28;19924;-69
2020/12/12 04:17:42;;;;;;;;;;;;;;;-0.81;100.00;99345.22;5091097;28;19937;-69
2020/12/12 04:20:08;;;;;;;;;;;;;;;-0.79;100.00;99340.63;5091417;28;19932;-69
2020/12/12 04:22:34;;;;;;;;;;;;;;;-0.75;100.00;99346.66;5091244;28;19924;-68
2020/12/12 04:25:00;;;;;;;;;;;;;;;-0.73;100.00;99342.13;5091352;28;20042;-68
2020/12/12 04:27:30;;;;;;;;;;;;;;;-0.77;100.00;99336.09;5073135;28;20369;-68
2020/12/12 04:29:55;;;;;;;;;;;;;;;-0.78;100.00;99331.69;5091310;28;19933;-68
2020/12/12 04:32:21;;;;;;;;;;;;;;;-0.80;100.00;99340.72;5073224;28;20001;-69
2020/12/12 04:34:47;;;;;;;;;;;;;;;-0.82;100.00;99343.47;5091111;28;19947;-69
2020/12/12 04:37:13;;;;;;;;;;;;;;;-0.83;100.00;99343.56;5091110;28;19931;-69
2020/12/12 04:39:39;;;;;;;;;;;;;;;-0.87;100.00;99340.22;5091151;28;20278;-68
2020/12/12 04:42:06;;;;;;;;;;;;;;;-0.87;100.00;99341.09;5091172;28;19924;-69
2020/12/12 04:44:32;;;;;;;;;;;;;;;-0.82;100.00;99339.97;5091244;28;20022;-69
2020/12/12 04:46:58;;;;;;;;;;;;;;;-0.79;100.00;99337.13;5093835;28;19927;-69
2020/12/12 04:49:24;;;;;;;;;;;;;;;-0.85;100.00;99336.50;5094932;28;19977;-68
2020/12/12 04:51:51;;;;;;;;;;;;;;;-0.86;100.00;99339.28;5094847;28;19932;-68
2020/12/12 04:54:18;;;;;;;;;;;;;;;-0.88;100.00;99344.69;5094763;28;20415;-68
2020/12/12 04:56:45;;;;;;;;;;;;;;;-0.91;100.00;99349.31;5094521;28;19970;-68
2020/12/12 04:59:12;;;;;;;;;;;;;;;-0.92;100.00;99348.47;5094752;28;19928;-68
2020/12/12 05:01:38;;;;;;;;;;;;;;;-0.89;100.00;99342.13;5094451;28;19977;-69
2020/12/12 05:04:06;;;;;;;;;;;;;;;-0.89;100.00;99350.97;5094590;28;19967;-69
2020/12/12 05:06:32;;;;;;;;;;;;;;;-0.84;100.00;99348.06;5094357;28;20018;-69
2020/12/12 05:08:58;;;;;;;;;;;;;;;-0.83;100.00;99357.75;5094535;28;19931;-69
2020/12/12 05:11:24;;;;;;;;;;;;;;;-0.78;100.00;99357.50;5094124;28;19955;-69
2020/12/12 05:13:51;;;;;;;;;;;;;;;-0.80;100.00;99352.25;5094280;28;19928;-69
2020/12/12 05:16:17;;;;;;;;;;;;;;;-0.80;100.00;99354.06;5093976;28;20022;-69
2020/12/12 05:18:43;;;;;;;;;;;;;;;-0.81;100.00;99357.69;5094285;28;19932;-69
2020/12/12 05:21:10;;;;;;;;;;;;;;;-0.80;100.00;99354.06;5094237;28;20275;-69
2020/12/12 05:23:35;;;;;;;;;;;;;;;-0.80;100.00;99362.03;5094124;28;20018;-69
2020/12/12 05:26:01;;;;;;;;;;;;;;;-0.82;100.00;99358.63;5093992;28;19924;-69
2020/12/12 05:28:28;;;;;;;;;;;;;;;-0.77;100.00;99356.56;5094199;28;19924;-69
2020/12/12 05:30:54;;;;;;;;;;;;;;;-0.79;100.00;99355.78;5094093;28;19928;-69
2020/12/12 05:33:21;;;;;;;;;;;;;;;-0.79;100.00;99361.94;5094155;28;19924;-68
2020/12/12 05:35:48;;;;;;;;;;;;;;;-0.83;100.00;99362.22;5093945;28;19928;-69
2020/12/12 05:38:14;;;;;;;;;;;;;;;-0.90;100.00;99353.72;5083465;28;20474;-69
2020/12/12 05:40:40;;;;;;;;;;;;;;;-0.89;100.00;99356.28;5073704;28;19971;-69
2020/12/12 05:43:07;;;;;;;;;;;;;;;-0.95;100.00;99359.31;5056586;28;20016;-69
2020/12/12 05:45:33;;;;;;;;;;;;;;;-0.98;100.00;99359.47;5093871;28;20333;-69
2020/12/12 05:48:00;;;;;;;;;;;;;;;-0.94;100.00;99358.34;5093596;28;19931;-69
2020/12/12 05:50:26;;;;;;;;;;;;;;;-0.95;100.00;99361.09;5093661;28;20022;-69
2020/12/12 05:52:53;;;;;;;;;;;;;;;-0.97;100.00;99361.19;5093522;28;19971;-69
2020/12/12 05:55:21;;;;;;;;;;;;;;;-0.98;100.00;99359.47;5092002;28;19935;-68
2020/12/12 05:57:46;;;;;;;;;;;;;;;-0.99;100.00;99359.56;5080326;28;20407;-69
2020/12/12 06:00:12;;;;;;;;;;;;;;;-1.03;100.00;99365.06;5090590;28;19932;-69
2020/12/12 06:02:43;;;;;;;;;;;;;;;-0.97;100.00;99363.00;5073190;28;19924;-69
2020/12/12 06:05:15;;;;;;;;;;;;;;;-1.03;100.00;99370.38;5074225;28;19939;-69
2020/12/12 06:07:43;;;;;;;;;;;;;;;-1.04;100.00;99374.00;5072498;28;19963;-69
2020/12/12 06:10:08;;;;;;;;;;;;;;;-1.03;100.00;99378.38;5072835;28;20011;-68
2020/12/12 06:12:34;;;;;;;;;;;;;;;-1.03;100.00;99377.50;5072441;28;20024;-68
2020/12/12 06:15:01;;;;;;;;;;;;;;;-1.05;100.00;99380.25;5072671;28;19925;-68
2020/12/12 06:17:35;;;;;;;;;;;;;;;-1.08;100.00;99384.88;5072464;28;19964;-69
2020/12/12 06:20:01;;;;;;;;;;;;;;;-1.10;100.00;99389.44;5072782;28;20018;-68
2020/12/12 06:22:29;;;;;;;;;;;;;;;-1.06;100.00;99385.66;5072474;28;19924;-68
2020/12/12 06:24:58;;;;;;;;;;;;;;;-1.06;100.00;99388.34;5072849;28;19962;-68
2020/12/12 06:27:26;;;;;;;;;;;;;;;-1.09;100.00;99386.69;5072282;28;19924;-68
2020/12/12 06:29:53;;;;;;;;;;;;;;;-1.13;100.00;99376.31;5071985;28;20023;-68
2020/12/12 06:32:19;;;;;;;;;;;;;;;-1.08;100.00;99382.22;5072338;28;20332;-68
2020/12/12 06:34:46;;;;;;;;;;;;;;;-1.11;100.00;99374.41;5072469;28;19925;-68
2020/12/12 06:37:24;;;;;;;;;;;;;;;-1.12;100.00;99375.34;5071881;28;20286;-68
2020/12/12 06:39:51;;;;;;;;;;;;;;;-1.14;100.00;99379.91;5072406;28;20023;-68
2020/12/12 06:42:27;;;;;;;;;;;;;;;-1.13;100.00;99378.97;5071945;28;20298;-68
2020/12/12 06:44:53;;;;;;;;;;;;;;;-1.14;100.00;99369.25;5071808;28;20031;-68
2020/12/12 06:47:33;;;;;;;;;;;;;;;-1.15;100.00;99371.03;5092207;28;20289;-68
2020/12/12 06:50:04;;;;;;;;;;;;;;;-1.15;100.00;99380.84;5072675;28;20366;-68
2020/12/12 06:52:30;;;;;;;;;;;;;;;-1.22;100.00;99375.84;5092427;28;20015;-68
2020/12/12 06:55:01;;;;;;;;;;;;;;;-1.25;100.00;99380.47;5083791;28;19928;-68
2020/12/12 06:57:33;;;;;;;;;;;;;;;-1.28;100.00;99377.97;5073078;28;20370;-68
2020/12/12 06:59:59;;;;;;;;;;;;;;;-1.29;100.00;99393.09;5079128;28;19969;-68
2020/12/12 07:02:24;;;;;;;;;;;;;;;-1.16;100.00;99392.44;5078792;28;19924;-68
2020/12/12 07:04:50;;;;;;;;;;;;;;;-1.15;100.00;99389.69;5078380;28;20436;-68
2020/12/12 07:07:16;;;;;;;;;;;;;;;-1.15;100.00;99397.66;5090800;28;19928;-68
2020/12/12 07:09:42;;;;;;;;;;;;;;;-1.14;100.00;99399.41;5086766;28;19931;-68
2020/12/12 07:12:10;;;;;;;;;;;;;;;-1.09;100.00;99396.50;5071858;28;19925;-68
2020/12/12 07:14:37;;;;;;;;;;;;;;;-1.10;100.00;99405.44;5071765;28;19931;-68
2020/12/12 07:17:04;;;;;;;;;;;;;;;-1.13;100.00;99395.78;5076890;28;19939;-68
2020/12/12 07:19:30;;;;;;;;;;;;;;;-1.13;100.00;99408.25;5092039;28;20023;-68
2020/12/12 07:21:56;;;;;;;;;;;;;;;-1.16;100.00;99395.97;5073582;28;20027;-68
2020/12/12 07:24:22;;;;;;;;;;;;;;;-1.14;100.00;99401.22;5074447;28;19924;-68
2020/12/12 07:26:48;;;;;;;;;;;;;;;-1.12;100.00;99404.63;5082012;28;19929;-68
2020/12/12 07:29:15;;;;;;;;;;;;;;;-1.12;100.00;99399.31;5071777;28;19971;-68
2020/12/12 07:31:42;;;;;;;;;;;;;;;-1.10;100.00;99418.75;5078882;28;20027;-67
2020/12/12 07:34:07;;;;;;;;;;;;;;;-1.10;100.00;99413.41;5071867;28;20070;-67
2020/12/12 07:36:33;;;;;;;;;;;;;;;-1.08;100.00;99409.72;5071667;28;19925;-67
2020/12/12 07:39:06;;;;;;;;;;;;;;;-1.06;100.00;99428.28;5077417;28;19973;-67
2020/12/12 07:41:32;;;;;;;;;;;;;;;-1.06;100.00;99425.63;5091871;28;20022;-67
2020/12/12 07:43:58;;;;;;;;;;;;;;;-1.02;100.00;99435.16;5091346;28;19956;-68
2020/12/12 07:46:38;;;;;;;;;;;;;;;-0.95;100.00;99430.38;5073315;28;19978;-67
2020/12/12 07:49:03;;;;;;;;;;;;;;;-0.87;100.00;99430.81;5071623;28;19925;-67
2020/12/12 07:51:29;;;;;;;;;;;;;;;-0.78;100.00;99429.47;5071697;28;20061;-67
2020/12/12 07:53:55;;;;;;;;;;;;;;;-0.72;100.00;99437.97;5071488;28;19931;-67
2020/12/12 07:56:22;;;;;;;;;;;;;;;-0.68;100.00;99442.19;5072085;28;19924;-67
2020/12/12 07:58:55;;;;;;;;;;;;;;;-0.63;100.00;99435.75;5076091;28;19935;-68
2020/12/12 08:01:22;;;;;;;;;;;;;;;-0.60;100.00;99448.88;5074787;28;19924;-68
2020/12/12 08:03:49;;;;;;;;;;;;;;;-0.58;100.00;99444.34;5070759;28;20015;-67
2020/12/12 08:06:16;;;;;;;;;;;;;;;-0.53;100.00;99452.94;5070993;28;20293;-68
2020/12/12 08:08:41;;;;;;;;;;;;;;;-0.48;100.00;99455.34;5070363;28;19960;-68
2020/12/12 08:11:08;;;;;;;;;;;;;;;-0.44;100.00;99460.44;5070655;28;19924;-68
2020/12/12 08:13:34;;;;;;;;;;;;;;;-0.37;100.00;99460.97;5070167;28;20027;-68
2020/12/12 08:16:06;;;;;;;;;;;;;;;-0.35;100.00;99453.72;5070365;28;19960;-68
2020/12/12 08:18:31;;;;;;;;;;;;;;;-0.33;100.00;99459.84;5070452;28;19925;-69
2020/12/12 08:21:09;;;;;;;;;;;;;;;-0.34;100.00;99463.44;5071669;28;19994;-68
2020/12/12 08:23:36;;;;;;;;;;;;;;;-0.31;100.00;99465.94;5083710;28;20401;-68
2020/12/12 08:26:02;;;;;;;;;;;;;;;-0.24;100.00;99469.09;5085560;28;19979;-68
2020/12/12 08:28:28;;;;;;;;;;;;;;;-0.22;100.00;99468.06;5084730;28;19932;-68
2020/12/12 08:30:54;;;;;;;;;;;;;;;-0.22;100.00;99465.41;5078499;28;20354;-68
2020/12/12 08:33:20;;;;;;;;;;;;;;;-0.16;100.00;99472.22;5074938;28;19924;-68
2020/12/12 08:35:46;;;;;;;;;;;;;;;-0.14;100.00;99464.13;5075630;28;20289;-68
2020/12/12 08:38:12;;;;;;;;;;;;;;;-0.13;100.00;99476.50;5074975;28;19925;-68
2020/12/12 08:40:43;;;;;;;;;;;;;;;-0.11;100.00;99482.63;5089702;28;19924;-68
2020/12/12 08:43:11;;;;;;;;;;;;;;;-0.12;100.00;99483.56;5086639;28;19924;-68
2020/12/12 08:45:37;;;;;;;;;;;;;;;-0.10;100.00;99481.69;5076108;28;20059;-68
2020/12/12 08:48:08;;;;;;;;;;;;;;;-0.07;100.00;99493.00;5095011;28;19960;-70
2020/12/12 08:50:51;;;;;;;;;;;;;;;-0.03;100.00;99491.03;5081505;28;19978;-70
2020/12/12 08:53:22;;;;;;;;;;;;;;;-0.02;100.00;99500.78;5074456;28;19932;-70
2020/12/12 08:55:58;;;;;;;;;;;;;;;0.01;100.00;99495.25;5073716;28;20309;-70
2020/12/12 08:58:31;;;;;;;;;;;;;;;0.04;100.00;99494.22;5074422;28;19932;-70
2020/12/12 09:01:08;;;;;;;;;;;;;;;0.03;100.00;99493.38;5074778;28;19929;-70
2020/12/12 09:03:33;;;;;;;;;;;;;;;0.04;100.00;99499.56;5074654;28;19975;-70
2020/12/12 09:06:05;;;;;;;;;;;;;;;0.10;100.00;99497.41;5074514;28;19925;-70
2020/12/12 09:08:31;;;;;;;;;;;;;;;0.16;100.00;99499.72;5074553;28;20027;-70
2020/12/12 09:11:09;;;;;;;;;;;;;;;0.20;100.00;99505.75;5074573;28;19933;-70
2020/12/12 09:13:34;;;;;;;;;;;;;;;0.23;100.00;99502.00;5084932;28;20007;-77
2020/12/12 09:16:03;;;;;;;;;;;;;;;0.22;100.00;99505.66;5094217;28;19946;-82
2020/12/12 09:18:29;;;;;;;;;;;;;;;0.17;100.00;99500.56;5094355;28;19924;-76
2020/12/12 09:20:55;;;;;;;;;;;;;;;0.20;100.00;99504.88;5094480;28;19928;-75
2020/12/12 09:23:20;;;;;;;;;;;;;;;0.22;100.00;99503.00;5094266;28;19924;-76
2020/12/12 09:25:47;;;;;;;;;;;;;;;0.27;100.00;99500.91;5094163;28;20298;-75
2020/12/12 09:28:13;;;;;;;;;;;;;;;0.25;100.00;99502.81;5094009;28;19931;-76
2020/12/12 09:30:39;;;;;;;;;;;;;;;0.25;100.00;99505.47;5094064;28;19931;-75
2020/12/12 09:33:04;;;;;;;;;;;;;;;0.29;100.00;99512.34;5093981;28;19924;-76
2020/12/12 09:35:30;;;;;;;;;;;;;;;0.33;100.00;99513.91;5093954;28;19994;-75
2020/12/12 09:37:56;;;;;;;;;;;;;;;0.36;100.00;99508.41;5075636;28;20381;-76
2020/12/12 09:40:22;;;;;;;;;;;;;;;0.47;100.00;99510.44;5093812;28;20398;-77
2020/12/12 09:42:48;;;;;;;;;;;;;;;0.43;100.00;99519.56;5093752;28;19928;-76
2020/12/12 09:45:14;;;;;;;;;;;;;;;0.50;100.00;99529.78;5093838;28;20014;-76
2020/12/12 09:47:40;;;;;;;;;;;;;;;0.50;100.00;99524.44;5093581;28;20301;-77
2020/12/12 09:50:06;;;;;;;;;;;;;;;0.51;100.00;99519.97;5093814;28;19931;-76
2020/12/12 09:52:31;;;;;;;;;;;;;;;0.51;100.00;99525.31;5093702;28;20305;-76
2020/12/12 09:54:57;;;;;;;;;;;;;;;0.56;100.00;99519.69;5093560;28;19978;-76
2020/12/12 09:57:25;;;;;;;;;;;;;;;0.60;100.00;99524.78;5093306;28;19927;-76
2020/12/12 09:59:51;;;;;;;;;;;;;;;0.55;100.00;99516.19;5093529;28;20242;-77
2020/12/12 10:02:17;;;;;;;;;;;;;;;0.59;100.00;99520.38;5093811;28;20018;-77
2020/12/12 10:04:43;;;;;;;;;;;;;;;0.66;100.00;99524.41;5075608;28;19977;-77
2020/12/12 10:07:08;;;;;;;;;;;;;;;0.67;100.00;99527.94;5093299;28;19981;-77
2020/12/12 10:09:34;;;;;;;;;;;;;;;0.68;100.00;99523.47;5093143;28;20347;-76
2020/12/12 10:12:01;;;;;;;;;;;;;;;0.73;100.00;99526.72;5093412;28;19928;-77
2020/12/12 10:14:27;;;;;;;;;;;;;;;0.76;100.00;99524.72;5093401;28;19927;-77
2020/12/12 10:16:55;;;;;;;;;;;;;;;0.75;100.00;99525.69;5092910;28;19947;-76
2020/12/12 10:19:21;;;;;;;;;;;;;;;0.83;100.00;99528.75;5093200;28;20023;-76
2020/12/12 10:21:47;;;;;;;;;;;;;;;0.87;100.00;99537.44;5093124;28;19932;-77
2020/12/12 10:24:12;;;;;;;;;;;;;;;0.86;100.00;99521.50;5093246;28;19925;-76
2020/12/12 10:26:38;;;;;;;;;;;;;;;0.95;100.00;99519.13;5092802;28;19928;-76
2020/12/12 10:29:04;;;;;;;;;;;;;;;0.90;100.00;99520.38;5093018;28;19924;-77
2020/12/12 10:31:30;;;;;;;;;;;;;;;0.96;100.00;99525.31;5092898;28;19928;-76
2020/12/12 10:33:56;;;;;;;;;;;;;;;0.96;100.00;99526.22;5074655;28;19923;-77
2020/12/12 10:36:22;;;;;;;;;;;;;;;1.02;100.00;99527.63;5092527;28;20027;-77
2020/12/12 10:38:49;;;;;;;;;;;;;;;1.14;100.00;99521.53;5092576;28;19928;-77
2020/12/12 10:41:14;;;;;;;;;;;;;;;1.14;100.00;99523.38;5092704;28;19931;-76
2020/12/12 10:43:40;;;;;;;;;;;;;;;1.24;100.00;99529.00;5092045;28;19928;-76
2020/12/12 10:46:07;;;;;;;;;;;;;;;1.30;100.00;99515.25;5092448;28;19928;-76
2020/12/12 10:48:33;;;;;;;;;;;;;;;1.40;100.00;99523.56;5092729;28;20023;-76
2020/12/12 10:50:59;;;;;;;;;;;;;;;1.54;100.00;99520.88;5092777;28;19924;-76
2020/12/12 10:53:25;;;;;;;;;;;;;;;1.57;100.00;99519.84;5092474;28;20019;-77
2020/12/12 10:55:51;;;;;;;;;;;;;;;1.69;100.00;99518.19;5092355;28;19928;-77
2020/12/12 10:58:17;;;;;;;;;;;;;;;1.77;100.00;99511.38;5074282;28;19928;-77
2020/12/12 11:00:44;;;;;;;;;;;;;;;1.84;100.00;99511.84;5092316;28;19968;-76
2020/12/12 11:03:10;;;;;;;;;;;;;;;1.76;100.00;99509.66;5092424;28;19947;-77
2020/12/12 11:05:36;;;;;;;;;;;;;;;1.74;100.00;99508.03;5092293;28;20435;-76
2020/12/12 11:08:03;;;;;;;;;;;;;;;1.69;100.00;99508.34;5092028;28;19924;-76
2020/12/12 11:10:28;;;;;;;;;;;;;;;1.75;100.00;99507.09;5092336;28;20020;-77
2020/12/12 11:12:54;;;;;;;;;;;;;;;1.81;100.00;99499.53;5092018;28;20027;-76
2020/12/12 11:15:20;;;;;;;;;;;;;;;1.84;100.00;99494.00;5091765;28;19928;-75
2020/12/12 11:17:46;;;;;;;;;;;;;;;1.88;100.00;99493.78;5091881;28;19928;-75
2020/12/12 11:20:12;;;;;;;;;;;;;;;1.97;100.00;99496.72;5074196;28;20064;-77
2020/12/12 11:22:38;;;;;;;;;;;;;;;2.15;100.00;99494.66;5091784;28;20449;-77
2020/12/12 11:25:05;;;;;;;;;;;;;;;2.32;100.00;99495.34;5092033;28;19928;-78
2020/12/12 11:27:31;;;;;;;;;;;;;;;2.56;100.00;99495.53;5091791;28;19946;-77
2020/12/12 11:29:57;;;;;;;;;;;;;;;2.78;100.00;99496.75;5069174;28;20381;-77
2020/12/12 11:32:23;;;;;;;;;;;;;;;3.01;100.00;99487.13;5082029;28;19925;-77
2020/12/12 11:34:56;;;;;;;;;;;;;;;3.17;100.00;99486.91;5085340;28;19935;-78
2020/12/12 11:37:30;;;;;;;;;;;;;;;3.37;100.00;99492.69;5089844;28;20449;-77
2020/12/12 11:40:04;;;;;;;;;;;;;;;3.30;100.00;99492.25;5071864;28;19964;-77
2020/12/12 11:43:05;;;;;;;;;;;;;;;3.28;100.00;99491.53;5071753;28;19982;-77
2020/12/12 11:48:14;;;;;;;;;;;;;;;3.15;100.00;99495.06;5072438;28;20318;-76
2020/12/12 11:50:40;;;;;;;;;;;;;;;3.12;100.00;99495.28;5071492;28;19935;-76
2020/12/12 11:53:07;;;;;;;;;;;;;;;3.06;100.00;99494.84;5088192;28;19924;-77
2020/12/12 11:55:33;;;;;;;;;;;;;;;3.00;100.00;99488.09;5092429;28;20415;-76
2020/12/12 11:57:59;;;;;;;;;;;;;;;3.04;100.00;99500.31;5079928;28;19933;-77
2020/12/12 12:00:26;;;;;;;;;;;;;;;3.03;100.00;99495.06;5075027;28;20019;-76
2020/12/12 12:02:52;;;;;;;;;;;;;;;3.18;100.00;99494.00;5090153;28;20429;-76
2020/12/12 12:05:18;;;;;;;;;;;;;;;3.22;100.00;99497.31;5095836;28;20069;-76
2020/12/12 12:07:45;;;;;;;;;;;;;;;3.17;100.00;99498.50;5082188;28;19971;-76
2020/12/12 12:10:15;;;;;;;;;;;;;;;3.09;100.00;99495.50;5075281;28;20382;-76
2020/12/12 12:12:41;;;;;;;;;;;;;;;2.87;100.00;99500.63;5075191;28;19924;-76
2020/12/12 12:15:08;;;;;;;;;;;;;;;2.81;100.00;99508.13;5083751;28;20407;-76
2020/12/12 12:17:34;;;;;;;;;;;;;;;2.81;100.00;99504.59;5095479;28;20010;-76
2020/12/12 12:20:00;;;;;;;;;;;;;;;2.91;100.00;99508.34;5088187;28;20042;-77
2020/12/12 12:22:26;;;;;;;;;;;;;;;2.81;100.00;99502.75;5074977;28;20533;-77
2020/12/12 12:24:51;;;;;;;;;;;;;;;2.84;100.00;99507.91;5079946;28;19924;-76
2020/12/12 12:27:17;;;;;;;;;;;;;;;2.91;100.00;99518.22;5095134;28;19928;-76
2020/12/12 12:29:43;;;;;;;;;;;;;;;2.90;100.00;99516.50;5090539;28;19932;-76
2020/12/12 12:32:10;;;;;;;;;;;;;;;2.88;100.00;99521.97;5074915;28;20340;-76
2020/12/12 12:34:35;;;;;;;;;;;;;;;2.82;100.00;99520.56;5084647;28;19924;-76
2020/12/12 12:37:01;;;;;;;;;;;;;;;2.81;100.00;99528.72;5094964;28;19947;-76
2020/12/12 12:39:27;;;;;;;;;;;;;;;2.68;100.00;99523.31;5093420;28;20039;-77
2020/12/12 12:41:53;;;;;;;;;;;;;;;2.58;100.00;99532.94;5095020;28;19924;-76